sensor_id;sensor_type;location;lat;lon;timestamp;pressure;altitude;pressure_sealevel;temperature;humidity
54554;BME280;40450;55.848;-3.572;2022-11-21T00:00:02;98154.87;;;1.98;88.32
54554;BME280;40450;55.848;-3.572;2022-11-21T00:02:32;98149.97;;;2.11;88.41
54554;BME280;40450;55.848;-3.572;2022-11-21T00:05:02;98138.86;;;2.67;87.37
54554;BME280;40450;55.848;-3.572;2022-11-21T00:07:33;98140.94;;;3.03;86.19
54554;BME280;40450;55.848;-3.572;2022-11-21T00:10:03;98140.86;;;3.63;84.28
54554;BME280;40450;55.848;-3.572;2022-11-21T00:12:33;98138.01;;;4.26;83.75
54554;BME280;40450;55.848;-3.572;2022-11-21T00:15:05;98140.47;;;3.41;83.93
54554;BME280;40450;55.848;-3.572;2022-11-21T00:17:34;98136.49;;;2.71;85.92
54554;BME280;40450;55.848;-3.572;2022-11-21T00:20:05;98134.92;;;3.03;85.78
54554;BME280;40450;55.848;-3.572;2022-11-21T00:22:35;98132.45;;;3.24;85.37
54554;BME280;40450;55.848;-3.572;2022-11-21T00:25:06;98129.21;;;3.51;85.18
54554;BME280;40450;55.848;-3.572;2022-11-21T00:27:36;98129.66;;;3.59;84.38
54554;BME280;40450;55.848;-3.572;2022-11-21T00:30:09;98135.50;;;3.55;83.62
54554;BME280;40450;55.848;-3.572;2022-11-21T00:32:37;98134.78;;;3.19;84.52
54554;BME280;40450;55.848;-3.572;2022-11-21T00:35:08;98134.18;;;3.34;84.65
54554;BME280;40450;55.848;-3.572;2022-11-21T00:37:38;98131.76;;;3.90;83.94
54554;BME280;40450;55.848;-3.572;2022-11-21T00:40:09;98130.46;;;3.99;82.90
54554;BME280;40450;55.848;-3.572;2022-11-21T00:42:39;98131.23;;;3.54;83.64
54554;BME280;40450;55.848;-3.572;2022-11-21T00:45:10;98126.94;;;2.68;86.17
54554;BME280;40450;55.848;-3.572;2022-11-21T00:47:41;98124.29;;;2.09;87.59
54554;BME280;40450;55.848;-3.572;2022-11-21T00:50:10;98121.04;;;1.81;88.62
54554;BME280;40450;55.848;-3.572;2022-11-21T00:52:41;98119.84;;;1.48;89.29
54554;BME280;40450;55.848;-3.572;2022-11-21T00:55:11;98116.61;;;1.74;89.06
54554;BME280;40450;55.848;-3.572;2022-11-21T00:57:42;98109.95;;;2.10;87.92
54554;BME280;40450;55.848;-3.572;2022-11-21T01:00:13;98105.66;;;2.85;87.05
54554;BME280;40450;55.848;-3.572;2022-11-21T01:02:42;98105.71;;;2.36;88.04
54554;BME280;40450;55.848;-3.572;2022-11-21T01:05:13;98104.61;;;3.00;86.63
54554;BME280;40450;55.848;-3.572;2022-11-21T01:07:43;98103.95;;;2.55;86.87
54554;BME280;40450;55.848;-3.572;2022-11-21T01:10:14;98101.64;;;2.59;87.00
54554;BME280;40450;55.848;-3.572;2022-11-21T01:12:44;98096.09;;;2.51;87.03
54554;BME280;40450;55.848;-3.572;2022-11-21T01:15:14;98093.10;;;2.46;87.07
54554;BME280;40450;55.848;-3.572;2022-11-21T01:17:45;98093.86;;;2.92;85.95
54554;BME280;40450;55.848;-3.572;2022-11-21T01:20:15;98094.57;;;3.29;84.95
54554;BME280;40450;55.848;-3.572;2022-11-21T01:22:46;98090.68;;;3.69;84.99
54554;BME280;40450;55.848;-3.572;2022-11-21T01:25:16;98086.09;;;3.85;83.35
54554;BME280;40450;55.848;-3.572;2022-11-21T01:27:46;98080.49;;;3.30;84.01
54554;BME280;40450;55.848;-3.572;2022-11-21T01:30:17;98078.39;;;3.83;82.67
54554;BME280;40450;55.848;-3.572;2022-11-21T01:32:48;98071.17;;;4.26;82.39
54554;BME280;40450;55.848;-3.572;2022-11-21T01:35:18;98070.06;;;4.22;82.32
54554;BME280;40450;55.848;-3.572;2022-11-21T01:37:49;98069.73;;;3.96;81.73
54554;BME280;40450;55.848;-3.572;2022-11-21T01:40:19;98070.06;;;4.01;81.24
54554;BME280;40450;55.848;-3.572;2022-11-21T01:42:54;98074.70;;;3.74;81.76
54554;BME280;40450;55.848;-3.572;2022-11-21T01:47:51;98071.50;;;3.92;81.08
54554;BME280;40450;55.848;-3.572;2022-11-21T01:50:20;98067.77;;;3.91;80.92
54554;BME280;40450;55.848;-3.572;2022-11-21T01:52:50;98065.77;;;3.90;81.13
54554;BME280;40450;55.848;-3.572;2022-11-21T01:55:21;98064.88;;;3.51;81.86
54554;BME280;40450;55.848;-3.572;2022-11-21T01:57:51;98064.46;;;2.80;84.17
54554;BME280;40450;55.848;-3.572;2022-11-21T02:00:23;98062.77;;;2.53;85.04
54554;BME280;40450;55.848;-3.572;2022-11-21T02:02:54;98062.14;;;2.49;85.70
54554;BME280;40450;55.848;-3.572;2022-11-21T02:05:24;98057.72;;;1.90;87.08
54554;BME280;40450;55.848;-3.572;2022-11-21T02:07:55;98059.82;;;1.53;88.52
54554;BME280;40450;55.848;-3.572;2022-11-21T02:10:23;98059.74;;;1.98;87.58
54554;BME280;40450;55.848;-3.572;2022-11-21T02:12:55;98052.85;;;1.70;87.81
54554;BME280;40450;55.848;-3.572;2022-11-21T02:15:26;98057.74;;;2.42;86.58
54554;BME280;40450;55.848;-3.572;2022-11-21T02:17:54;98059.61;;;2.73;85.53
54554;BME280;40450;55.848;-3.572;2022-11-21T02:20:27;98051.76;;;3.07;84.96
54554;BME280;40450;55.848;-3.572;2022-11-21T02:22:58;98044.99;;;3.07;84.22
54554;BME280;40450;55.848;-3.572;2022-11-21T02:25:27;98038.09;;;3.33;83.47
54554;BME280;40450;55.848;-3.572;2022-11-21T02:27:58;98027.05;;;2.91;83.73
54554;BME280;40450;55.848;-3.572;2022-11-21T02:30:27;98023.39;;;2.83;83.52
54554;BME280;40450;55.848;-3.572;2022-11-21T02:32:57;98018.60;;;2.98;83.09
54554;BME280;40450;55.848;-3.572;2022-11-21T02:35:27;98016.60;;;3.51;82.49
54554;BME280;40450;55.848;-3.572;2022-11-21T02:37:59;98012.74;;;3.63;81.45
54554;BME280;40450;55.848;-3.572;2022-11-21T02:40:31;98005.48;;;3.68;80.91
54554;BME280;40450;55.848;-3.572;2022-11-21T02:43:03;98002.96;;;3.75;80.65
54554;BME280;40450;55.848;-3.572;2022-11-21T02:45:32;97995.36;;;3.87;79.80
54554;BME280;40450;55.848;-3.572;2022-11-21T02:47:59;97993.04;;;4.51;79.94
54554;BME280;40450;55.848;-3.572;2022-11-21T02:50:31;97986.71;;;4.55;78.12
54554;BME280;40450;55.848;-3.572;2022-11-21T02:53:01;97980.10;;;4.65;77.91
54554;BME280;40450;55.848;-3.572;2022-11-21T02:55:30;97975.94;;;4.59;77.90
54554;BME280;40450;55.848;-3.572;2022-11-21T02:58:01;97970.91;;;4.23;77.99
54554;BME280;40450;55.848;-3.572;2022-11-21T03:00:32;97965.62;;;4.19;78.84
54554;BME280;40450;55.848;-3.572;2022-11-21T03:03:02;97966.74;;;3.66;79.75
54554;BME280;40450;55.848;-3.572;2022-11-21T03:05:32;97960.51;;;4.52;79.44
54554;BME280;40450;55.848;-3.572;2022-11-21T03:08:04;97960.99;;;5.06;76.64
54554;BME280;40450;55.848;-3.572;2022-11-21T03:10:33;97961.53;;;4.40;77.04
54554;BME280;40450;55.848;-3.572;2022-11-21T03:13:03;97958.35;;;4.13;78.17
54554;BME280;40450;55.848;-3.572;2022-11-21T03:15:34;97949.48;;;4.65;77.96
54554;BME280;40450;55.848;-3.572;2022-11-21T03:18:04;97946.18;;;4.06;77.18
54554;BME280;40450;55.848;-3.572;2022-11-21T03:20:34;97941.12;;;4.44;77.15
54554;BME280;40450;55.848;-3.572;2022-11-21T03:23:05;97935.93;;;4.49;76.52
54554;BME280;40450;55.848;-3.572;2022-11-21T03:25:35;97931.02;;;4.74;76.10
54554;BME280;40450;55.848;-3.572;2022-11-21T03:28:06;97933.91;;;4.76;76.21
54554;BME280;40450;55.848;-3.572;2022-11-21T03:30:36;97931.04;;;4.97;75.19
54554;BME280;40450;55.848;-3.572;2022-11-21T03:33:07;97923.66;;;4.54;75.90
54554;BME280;40450;55.848;-3.572;2022-11-21T03:35:37;97922.43;;;3.62;78.55
54554;BME280;40450;55.848;-3.572;2022-11-21T03:38:08;97917.68;;;3.24;80.19
54554;BME280;40450;55.848;-3.572;2022-11-21T03:40:38;97901.79;;;4.03;78.44
54554;BME280;40450;55.848;-3.572;2022-11-21T03:43:09;97896.41;;;4.59;77.29
54554;BME280;40450;55.848;-3.572;2022-11-21T03:45:39;97891.48;;;4.92;76.31
54554;BME280;40450;55.848;-3.572;2022-11-21T03:48:09;97879.59;;;5.19;77.24
54554;BME280;40450;55.848;-3.572;2022-11-21T03:50:42;97879.90;;;4.21;78.70
54554;BME280;40450;55.848;-3.572;2022-11-21T03:53:11;97876.55;;;2.73;81.07
54554;BME280;40450;55.848;-3.572;2022-11-21T03:55:41;97877.40;;;-0.39;88.96
54554;BME280;40450;55.848;-3.572;2022-11-21T03:58:11;97877.77;;;-1.43;91.73
54554;BME280;40450;55.848;-3.572;2022-11-21T04:00:42;97875.37;;;-2.65;94.92
54554;BME280;40450;55.848;-3.572;2022-11-21T04:03:12;97866.60;;;-0.66;92.04
54554;BME280;40450;55.848;-3.572;2022-11-21T04:05:43;97862.68;;;1.08;89.11
54554;BME280;40450;55.848;-3.572;2022-11-21T04:08:13;97849.48;;;3.41;84.69
54554;BME280;40450;55.848;-3.572;2022-11-21T04:10:46;97847.14;;;2.10;85.34
54554;BME280;40450;55.848;-3.572;2022-11-21T04:13:14;97846.14;;;1.46;85.62
54554;BME280;40450;55.848;-3.572;2022-11-21T04:15:44;97843.61;;;1.66;85.98
54554;BME280;40450;55.848;-3.572;2022-11-21T04:18:15;97829.88;;;3.61;81.67
54554;BME280;40450;55.848;-3.572;2022-11-21T04:20:45;97827.03;;;3.05;82.70
54554;BME280;40450;55.848;-3.572;2022-11-21T04:23:15;97824.50;;;4.66;79.27
54554;BME280;40450;55.848;-3.572;2022-11-21T04:25:46;97818.09;;;5.38;75.99
54554;BME280;40450;55.848;-3.572;2022-11-21T04:28:16;97809.81;;;6.03;78.44
54554;BME280;40450;55.848;-3.572;2022-11-21T04:30:47;97805.94;;;6.37;74.71
54554;BME280;40450;55.848;-3.572;2022-11-21T04:33:18;97803.50;;;6.69;74.62
54554;BME280;40450;55.848;-3.572;2022-11-21T04:35:48;97795.56;;;6.93;74.76
54554;BME280;40450;55.848;-3.572;2022-11-21T04:38:18;97792.26;;;7.03;73.06
54554;BME280;40450;55.848;-3.572;2022-11-21T04:40:49;97782.76;;;7.24;73.08
54554;BME280;40450;55.848;-3.572;2022-11-21T04:43:19;97775.55;;;7.27;72.19
54554;BME280;40450;55.848;-3.572;2022-11-21T04:45:50;97784.95;;;6.75;69.27
54554;BME280;40450;55.848;-3.572;2022-11-21T04:48:20;97790.90;;;6.67;71.19
54554;BME280;40450;55.848;-3.572;2022-11-21T04:50:50;97789.96;;;6.83;71.41
54554;BME280;40450;55.848;-3.572;2022-11-21T04:53:21;97787.83;;;7.01;71.30
54554;BME280;40450;55.848;-3.572;2022-11-21T04:55:51;97780.90;;;7.03;68.38
54554;BME280;40450;55.848;-3.572;2022-11-21T04:58:22;97775.22;;;7.10;70.24
54554;BME280;40450;55.848;-3.572;2022-11-21T05:00:52;97773.19;;;7.12;68.79
54554;BME280;40450;55.848;-3.572;2022-11-21T05:03:23;97766.51;;;7.12;68.26
54554;BME280;40450;55.848;-3.572;2022-11-21T05:05:53;97764.51;;;7.23;68.27
54554;BME280;40450;55.848;-3.572;2022-11-21T05:08:24;97761.66;;;6.99;67.52
54554;BME280;40450;55.848;-3.572;2022-11-21T05:10:54;97761.91;;;7.02;67.68
54554;BME280;40450;55.848;-3.572;2022-11-21T05:13:25;97764.17;;;6.57;66.22
54554;BME280;40450;55.848;-3.572;2022-11-21T05:15:56;97766.04;;;6.70;68.42
54554;BME280;40450;55.848;-3.572;2022-11-21T05:18:25;97765.39;;;6.91;68.45
54554;BME280;40450;55.848;-3.572;2022-11-21T05:20:56;97757.57;;;7.06;67.56
54554;BME280;40450;55.848;-3.572;2022-11-21T05:23:27;97760.87;;;6.62;66.96
54554;BME280;40450;55.848;-3.572;2022-11-21T05:25:57;97754.95;;;6.51;67.11
54554;BME280;40450;55.848;-3.572;2022-11-21T05:28:27;97752.48;;;6.16;65.90
54554;BME280;40450;55.848;-3.572;2022-11-21T05:30:58;97751.71;;;6.19;67.67
54554;BME280;40450;55.848;-3.572;2022-11-21T05:33:28;97748.83;;;5.76;66.83
54554;BME280;40450;55.848;-3.572;2022-11-21T05:35:58;97743.26;;;5.77;67.37
54554;BME280;40450;55.848;-3.572;2022-11-21T05:38:29;97738.73;;;5.45;68.59
54554;BME280;40450;55.848;-3.572;2022-11-21T05:40:59;97733.31;;;4.89;69.66
54554;BME280;40450;55.848;-3.572;2022-11-21T05:43:30;97740.38;;;4.23;72.07
54554;BME280;40450;55.848;-3.572;2022-11-21T05:46:00;97741.42;;;3.82;71.04
54554;BME280;40450;55.848;-3.572;2022-11-21T05:48:31;97741.47;;;3.81;72.19
54554;BME280;40450;55.848;-3.572;2022-11-21T05:51:01;97740.73;;;3.94;72.17
54554;BME280;40450;55.848;-3.572;2022-11-21T05:53:32;97737.50;;;4.06;71.08
54554;BME280;40450;55.848;-3.572;2022-11-21T05:56:05;97728.12;;;4.61;71.38
54554;BME280;40450;55.848;-3.572;2022-11-21T05:58:33;97714.70;;;5.12;70.89
54554;BME280;40450;55.848;-3.572;2022-11-21T06:01:05;97706.56;;;3.99;70.94
54554;BME280;40450;55.848;-3.572;2022-11-21T06:03:35;97707.00;;;5.05;71.55
54554;BME280;40450;55.848;-3.572;2022-11-21T06:06:05;97706.53;;;5.72;70.32
54554;BME280;40450;55.848;-3.572;2022-11-21T06:08:36;97700.74;;;5.79;70.08
54554;BME280;40450;55.848;-3.572;2022-11-21T06:11:07;97691.69;;;5.31;70.52
54554;BME280;40450;55.848;-3.572;2022-11-21T06:13:36;97686.32;;;5.01;71.21
54554;BME280;40450;55.848;-3.572;2022-11-21T06:16:08;97678.16;;;5.82;71.65
54554;BME280;40450;55.848;-3.572;2022-11-21T06:18:38;97672.84;;;5.99;71.23
54554;BME280;40450;55.848;-3.572;2022-11-21T06:21:08;97667.16;;;6.44;71.17
54554;BME280;40450;55.848;-3.572;2022-11-21T06:23:37;97669.77;;;5.53;72.54
54554;BME280;40450;55.848;-3.572;2022-11-21T06:26:12;97661.62;;;5.08;73.33
54554;BME280;40450;55.848;-3.572;2022-11-21T06:28:38;97650.42;;;4.70;73.85
54554;BME280;40450;55.848;-3.572;2022-11-21T06:31:16;97647.35;;;4.23;76.62
54554;BME280;40450;55.848;-3.572;2022-11-21T06:33:39;97644.02;;;4.44;75.96
54554;BME280;40450;55.848;-3.572;2022-11-21T06:36:11;97641.72;;;4.62;75.59
54554;BME280;40450;55.848;-3.572;2022-11-21T06:38:39;97642.65;;;5.43;73.93
54554;BME280;40450;55.848;-3.572;2022-11-21T06:41:11;97631.33;;;6.22;73.52
54554;BME280;40450;55.848;-3.572;2022-11-21T06:43:41;97626.51;;;6.64;73.17
54554;BME280;40450;55.848;-3.572;2022-11-21T06:46:13;97620.13;;;7.06;71.95
54554;BME280;40450;55.848;-3.572;2022-11-21T06:48:42;97610.47;;;7.46;71.33
54554;BME280;40450;55.848;-3.572;2022-11-21T06:51:16;97603.15;;;7.30;70.93
54554;BME280;40450;55.848;-3.572;2022-11-21T06:53:42;97605.01;;;7.76;70.17
54554;BME280;40450;55.848;-3.572;2022-11-21T06:56:14;97601.73;;;7.91;68.71
54554;BME280;40450;55.848;-3.572;2022-11-21T06:58:43;97605.64;;;7.09;69.92
54554;BME280;40450;55.848;-3.572;2022-11-21T07:01:13;97602.15;;;7.06;69.54
54554;BME280;40450;55.848;-3.572;2022-11-21T07:03:44;97600.35;;;7.04;70.12
54554;BME280;40450;55.848;-3.572;2022-11-21T07:06:14;97597.48;;;6.91;70.72
54554;BME280;40450;55.848;-3.572;2022-11-21T07:08:45;97597.29;;;5.87;71.65
54554;BME280;40450;55.848;-3.572;2022-11-21T07:11:15;97591.03;;;6.53;71.63
54554;BME280;40450;55.848;-3.572;2022-11-21T07:13:46;97587.51;;;7.30;70.77
54554;BME280;40450;55.848;-3.572;2022-11-21T07:16:16;97580.34;;;6.62;70.56
54554;BME280;40450;55.848;-3.572;2022-11-21T07:18:46;97577.39;;;5.71;73.12
54554;BME280;40450;55.848;-3.572;2022-11-21T07:21:17;97576.68;;;5.71;73.33
54554;BME280;40450;55.848;-3.572;2022-11-21T07:23:48;97574.69;;;5.30;73.83
54554;BME280;40450;55.848;-3.572;2022-11-21T07:26:18;97579.29;;;4.98;74.79
54554;BME280;40450;55.848;-3.572;2022-11-21T07:28:48;97568.52;;;5.95;72.78
54554;BME280;40450;55.848;-3.572;2022-11-21T07:31:19;97569.03;;;4.39;75.58
54554;BME280;40450;55.848;-3.572;2022-11-21T07:33:50;97568.43;;;0.25;85.60
54554;BME280;40450;55.848;-3.572;2022-11-21T07:36:22;97555.39;;;2.17;81.23
54554;BME280;40450;55.848;-3.572;2022-11-21T07:38:50;97550.30;;;0.68;84.92
54554;BME280;40450;55.848;-3.572;2022-11-21T07:41:21;97542.29;;;0.31;85.84
54554;BME280;40450;55.848;-3.572;2022-11-21T07:43:51;97545.88;;;-1.21;89.70
54554;BME280;40450;55.848;-3.572;2022-11-21T07:46:23;97544.91;;;-1.91;92.04
54554;BME280;40450;55.848;-3.572;2022-11-21T07:48:53;97536.71;;;0.43;87.42
54554;BME280;40450;55.848;-3.572;2022-11-21T07:51:23;97530.57;;;2.34;82.77
54554;BME280;40450;55.848;-3.572;2022-11-21T07:53:54;97532.86;;;1.13;85.03
54554;BME280;40450;55.848;-3.572;2022-11-21T07:56:24;97537.66;;;-0.54;88.81
54554;BME280;40450;55.848;-3.572;2022-11-21T07:58:54;97527.19;;;2.03;84.14
54554;BME280;40450;55.848;-3.572;2022-11-21T08:01:25;97528.95;;;-1.38;89.19
54554;BME280;40450;55.848;-3.572;2022-11-21T08:03:55;97523.73;;;-0.47;88.60
54554;BME280;40450;55.848;-3.572;2022-11-21T08:06:25;97521.07;;;-1.87;92.63
54554;BME280;40450;55.848;-3.572;2022-11-21T08:08:56;97509.86;;;-0.92;89.88
54554;BME280;40450;55.848;-3.572;2022-11-21T08:11:27;97504.18;;;-1.17;90.83
54554;BME280;40450;55.848;-3.572;2022-11-21T08:13:58;97493.54;;;0.23;87.64
54554;BME280;40450;55.848;-3.572;2022-11-21T08:16:27;97493.34;;;0.12;87.92
54554;BME280;40450;55.848;-3.572;2022-11-21T08:18:58;97489.51;;;-0.41;87.96
54554;BME280;40450;55.848;-3.572;2022-11-21T08:21:28;97480.35;;;2.45;83.81
54554;BME280;40450;55.848;-3.572;2022-11-21T08:23:59;97474.58;;;4.06;83.10
54554;BME280;40450;55.848;-3.572;2022-11-21T08:26:29;97471.32;;;5.59;80.41
54554;BME280;40450;55.848;-3.572;2022-11-21T08:29:00;97464.20;;;5.86;80.19
54554;BME280;40450;55.848;-3.572;2022-11-21T08:31:30;97466.45;;;6.65;73.69
54554;BME280;40450;55.848;-3.572;2022-11-21T08:34:00;97460.98;;;7.04;74.94
54554;BME280;40450;55.848;-3.572;2022-11-21T08:36:31;97463.00;;;6.09;72.77
54554;BME280;40450;55.848;-3.572;2022-11-21T08:39:02;97457.61;;;7.30;74.25
54554;BME280;40450;55.848;-3.572;2022-11-21T08:41:32;97464.94;;;0.88;84.29
54554;BME280;40450;55.848;-3.572;2022-11-21T08:44:04;97452.84;;;5.23;77.15
54554;BME280;40450;55.848;-3.572;2022-11-21T08:46:34;97449.23;;;5.81;71.69
54554;BME280;40450;55.848;-3.572;2022-11-21T08:49:04;97448.39;;;6.71;72.65
54554;BME280;40450;55.848;-3.572;2022-11-21T08:51:34;97444.65;;;7.27;72.21
54554;BME280;40450;55.848;-3.572;2022-11-21T08:54:05;97445.03;;;7.54;71.84
54554;BME280;40450;55.848;-3.572;2022-11-21T08:56:34;97441.15;;;7.84;70.08
54554;BME280;40450;55.848;-3.572;2022-11-21T08:59:05;97440.66;;;7.61;67.68
54554;BME280;40450;55.848;-3.572;2022-11-21T09:01:35;97438.83;;;7.13;66.68
54554;BME280;40450;55.848;-3.572;2022-11-21T09:04:06;97438.39;;;7.37;68.59
54554;BME280;40450;55.848;-3.572;2022-11-21T09:06:37;97436.51;;;7.42;67.32
54554;BME280;40450;55.848;-3.572;2022-11-21T09:09:08;97436.49;;;7.50;67.91
54554;BME280;40450;55.848;-3.572;2022-11-21T09:11:37;97441.90;;;6.53;69.80
54554;BME280;40450;55.848;-3.572;2022-11-21T09:16:38;97434.66;;;6.55;70.35
54554;BME280;40450;55.848;-3.572;2022-11-21T09:19:09;97437.73;;;7.25;70.35
54554;BME280;40450;55.848;-3.572;2022-11-21T09:21:40;97430.52;;;7.97;68.08
54554;BME280;40450;55.848;-3.572;2022-11-21T09:24:09;97425.32;;;7.29;68.84
54554;BME280;40450;55.848;-3.572;2022-11-21T09:26:40;97428.04;;;4.97;73.32
54554;BME280;40450;55.848;-3.572;2022-11-21T09:29:11;97428.83;;;5.09;72.63
54554;BME280;40450;55.848;-3.572;2022-11-21T09:31:42;97434.64;;;3.84;75.93
54554;BME280;40450;55.848;-3.572;2022-11-21T09:34:11;97432.23;;;1.42;82.98
54554;BME280;40450;55.848;-3.572;2022-11-21T09:36:44;97432.12;;;2.79;79.45
54554;BME280;40450;55.848;-3.572;2022-11-21T09:39:12;97422.81;;;4.73;76.57
54554;BME280;40450;55.848;-3.572;2022-11-21T09:41:51;97427.41;;;2.78;80.09
54554;BME280;40450;55.848;-3.572;2022-11-21T09:44:18;97431.22;;;3.96;78.48
54554;BME280;40450;55.848;-3.572;2022-11-21T09:46:46;97431.03;;;2.52;81.66
54554;BME280;40450;55.848;-3.572;2022-11-21T09:49:14;97426.36;;;4.86;78.05
54554;BME280;40450;55.848;-3.572;2022-11-21T09:51:45;97421.83;;;4.81;76.85
54554;BME280;40450;55.848;-3.572;2022-11-21T09:54:18;97423.77;;;5.19;75.24
54554;BME280;40450;55.848;-3.572;2022-11-21T09:56:47;97420.82;;;4.47;78.68
54554;BME280;40450;55.848;-3.572;2022-11-21T09:59:28;97410.80;;;6.10;76.36
54554;BME280;40450;55.848;-3.572;2022-11-21T10:01:46;97406.81;;;2.08;84.17
54554;BME280;40450;55.848;-3.572;2022-11-21T10:04:17;97405.16;;;3.13;82.02
54554;BME280;40450;55.848;-3.572;2022-11-21T10:06:54;97402.27;;;1.38;86.03
54554;BME280;40450;55.848;-3.572;2022-11-21T10:09:24;97402.03;;;1.99;85.80
54554;BME280;40450;55.848;-3.572;2022-11-21T10:11:54;97404.16;;;3.43;82.50
54554;BME280;40450;55.848;-3.572;2022-11-21T10:14:24;97400.13;;;3.25;82.55
54554;BME280;40450;55.848;-3.572;2022-11-21T10:16:55;97403.05;;;3.68;82.21
54554;BME280;40450;55.848;-3.572;2022-11-21T10:19:32;97392.40;;;4.57;79.77
54554;BME280;40450;55.848;-3.572;2022-11-21T10:24:32;97390.60;;;2.76;83.50
54554;BME280;40450;55.848;-3.572;2022-11-21T10:26:53;97379.20;;;5.60;80.06
54554;BME280;40450;55.848;-3.572;2022-11-21T10:29:24;97372.95;;;6.92;78.06
54554;BME280;40450;55.848;-3.572;2022-11-21T10:31:56;97371.31;;;6.45;77.35
54554;BME280;40450;55.848;-3.572;2022-11-21T10:34:28;97368.99;;;6.09;76.41
54554;BME280;40450;55.848;-3.572;2022-11-21T10:37:00;97371.38;;;2.02;86.32
54554;BME280;40450;55.848;-3.572;2022-11-21T10:39:31;97362.58;;;-1.22;93.47
54554;BME280;40450;55.848;-3.572;2022-11-21T10:41:59;97367.72;;;0.49;91.39
54554;BME280;40450;55.848;-3.572;2022-11-21T10:44:27;97357.72;;;1.74;89.03
54554;BME280;40450;55.848;-3.572;2022-11-21T10:46:55;97349.98;;;4.13;83.49
54554;BME280;40450;55.848;-3.572;2022-11-21T10:49:28;97346.37;;;3.54;85.44
54554;BME280;40450;55.848;-3.572;2022-11-21T10:52:00;97346.78;;;4.87;80.93
54554;BME280;40450;55.848;-3.572;2022-11-21T10:54:26;97342.82;;;4.25;81.33
54554;BME280;40450;55.848;-3.572;2022-11-21T10:57:00;97341.71;;;5.46;81.30
54554;BME280;40450;55.848;-3.572;2022-11-21T10:59:29;97329.82;;;4.76;80.03
54554;BME280;40450;55.848;-3.572;2022-11-21T11:02:19;97331.65;;;2.44;85.65
54554;BME280;40450;55.848;-3.572;2022-11-21T11:04:28;97321.72;;;4.88;83.37
54554;BME280;40450;55.848;-3.572;2022-11-21T11:14:30;97318.46;;;4.20;83.72
54554;BME280;40450;55.848;-3.572;2022-11-21T11:17:00;97319.64;;;3.48;83.47
54554;BME280;40450;55.848;-3.572;2022-11-21T11:19:30;97315.37;;;6.66;80.17
54554;BME280;40450;55.848;-3.572;2022-11-21T11:22:01;97315.62;;;1.01;88.90
54554;BME280;40450;55.848;-3.572;2022-11-21T11:24:31;97306.79;;;-0.41;94.31
54554;BME280;40450;55.848;-3.572;2022-11-21T11:27:02;97299.67;;;1.91;90.20
54554;BME280;40450;55.848;-3.572;2022-11-21T11:29:33;97293.52;;;1.98;89.34
54554;BME280;40450;55.848;-3.572;2022-11-21T11:32:11;97289.07;;;2.68;89.25
54554;BME280;40450;55.848;-3.572;2022-11-21T11:34:38;97280.87;;;5.16;83.13
54554;BME280;40450;55.848;-3.572;2022-11-21T11:37:11;97284.60;;;2.73;87.68
54554;BME280;40450;55.848;-3.572;2022-11-21T11:39:42;97285.34;;;2.28;89.34
54554;BME280;40450;55.848;-3.572;2022-11-21T11:42:21;97281.80;;;2.20;87.96
54554;BME280;40450;55.848;-3.572;2022-11-21T11:44:41;97273.13;;;4.62;86.62
54554;BME280;40450;55.848;-3.572;2022-11-21T11:47:07;97272.85;;;5.60;84.01
54554;BME280;40450;55.848;-3.572;2022-11-21T11:49:39;97270.59;;;2.01;90.86
54554;BME280;40450;55.848;-3.572;2022-11-21T11:52:05;97259.87;;;0.61;93.06
54554;BME280;40450;55.848;-3.572;2022-11-21T11:54:44;97255.89;;;2.79;90.08
54554;BME280;40450;55.848;-3.572;2022-11-21T11:57:08;97248.73;;;0.20;94.55
54554;BME280;40450;55.848;-3.572;2022-11-21T11:59:40;97244.13;;;-2.07;98.60
54554;BME280;40450;55.848;-3.572;2022-11-21T12:02:15;97246.72;;;-1.96;99.44
54554;BME280;40450;55.848;-3.572;2022-11-21T12:04:43;97251.47;;;-2.89;100.00
54554;BME280;40450;55.848;-3.572;2022-11-21T12:07:15;97245.36;;;-2.18;100.00
54554;BME280;40450;55.848;-3.572;2022-11-21T12:09:43;97245.46;;;-1.13;99.14
54554;BME280;40450;55.848;-3.572;2022-11-21T12:12:14;97240.49;;;0.13;97.94
54554;BME280;40450;55.848;-3.572;2022-11-21T12:14:53;97233.96;;;-1.01;98.14
54554;BME280;40450;55.848;-3.572;2022-11-21T12:17:10;97229.77;;;-2.17;100.00
54554;BME280;40450;55.848;-3.572;2022-11-21T12:19:40;97225.78;;;-1.29;99.47
54554;BME280;40450;55.848;-3.572;2022-11-21T12:22:10;97224.80;;;-1.17;99.12
54554;BME280;40450;55.848;-3.572;2022-11-21T12:24:41;97218.89;;;-0.10;98.60
54554;BME280;40450;55.848;-3.572;2022-11-21T12:27:22;97211.58;;;2.82;95.19
54554;BME280;40450;55.848;-3.572;2022-11-21T12:29:51;97206.02;;;3.94;90.94
54554;BME280;40450;55.848;-3.572;2022-11-21T12:32:24;97207.03;;;-0.02;96.85
54554;BME280;40450;55.848;-3.572;2022-11-21T12:34:56;97202.85;;;2.67;93.66
54554;BME280;40450;55.848;-3.572;2022-11-21T12:37:21;97201.15;;;3.34;89.13
54554;BME280;40450;55.848;-3.572;2022-11-21T12:39:53;97203.51;;;0.85;94.43
54554;BME280;40450;55.848;-3.572;2022-11-21T12:42:19;97202.43;;;1.65;93.62
54554;BME280;40450;55.848;-3.572;2022-11-21T12:44:56;97193.34;;;3.06;90.69
54554;BME280;40450;55.848;-3.572;2022-11-21T12:47:25;97184.36;;;5.19;88.62
54554;BME280;40450;55.848;-3.572;2022-11-21T12:49:49;97182.54;;;4.87;86.80
54554;BME280;40450;55.848;-3.572;2022-11-21T12:52:22;97188.56;;;1.56;92.13
54554;BME280;40450;55.848;-3.572;2022-11-21T12:55:01;97176.89;;;4.28;89.46
54554;BME280;40450;55.848;-3.572;2022-11-21T12:57:19;97173.63;;;6.27;86.63
54554;BME280;40450;55.848;-3.572;2022-11-21T12:59:54;97171.78;;;6.82;84.32
54554;BME280;40450;55.848;-3.572;2022-11-21T13:02:27;97155.36;;;7.80;82.38
54554;BME280;40450;55.848;-3.572;2022-11-21T13:04:49;97152.24;;;8.30;78.49
54554;BME280;40450;55.848;-3.572;2022-11-21T13:07:19;97151.93;;;3.78;84.97
54554;BME280;40450;55.848;-3.572;2022-11-21T13:09:53;97148.25;;;4.80;83.16
54554;BME280;40450;55.848;-3.572;2022-11-21T13:12:24;97147.18;;;2.71;88.61
54554;BME280;40450;55.848;-3.572;2022-11-21T13:14:54;97145.80;;;3.94;85.45
54554;BME280;40450;55.848;-3.572;2022-11-21T13:17:35;97144.71;;;1.49;90.20
54554;BME280;40450;55.848;-3.572;2022-11-21T13:19:55;97138.22;;;0.32;94.37
54554;BME280;40450;55.848;-3.572;2022-11-21T13:24:56;97132.68;;;1.65;92.10
54554;BME280;40450;55.848;-3.572;2022-11-21T13:27:28;97137.67;;;-1.17;96.83
54554;BME280;40450;55.848;-3.572;2022-11-21T13:34:53;97124.68;;;-1.51;98.64
54554;BME280;40450;55.848;-3.572;2022-11-21T13:42:28;97116.29;;;-2.28;99.57